createdAt,value
2023-09-22T00:01:49.461Z,99.90
2023-09-22T00:04:18.072Z,99.90
2023-09-22T00:06:46.440Z,99.90
2023-09-22T00:09:15.096Z,99.90
2023-09-22T00:11:44.783Z,99.90
2023-09-22T00:14:13.473Z,99.90
2023-09-22T00:16:42.211Z,99.90
2023-09-22T00:19:11.493Z,99.90
2023-09-22T00:21:39.897Z,99.90
2023-09-22T00:24:09.237Z,99.90
2023-09-22T00:26:37.741Z,99.90
2023-09-22T00:29:08.251Z,99.90
2023-09-22T00:31:36.673Z,99.90
2023-09-22T00:34:05.332Z,99.90
2023-09-22T00:36:35.188Z,99.90
2023-09-22T00:39:05.268Z,99.90
2023-09-22T00:41:33.613Z,99.90
2023-09-22T00:44:02.295Z,99.90
2023-09-22T00:46:32.204Z,99.90
2023-09-22T00:49:03.622Z,99.90
2023-09-22T00:51:32.148Z,99.90
2023-09-22T00:54:01.712Z,99.90
2023-09-22T00:56:31.133Z,99.90
2023-09-22T00:59:00.029Z,99.90
2023-09-22T01:01:28.258Z,99.90
2023-09-22T01:03:58.347Z,99.90
2023-09-22T01:06:27.063Z,99.90
2023-09-22T01:08:55.721Z,99.90
2023-09-22T01:11:24.416Z,99.90
2023-09-22T01:13:53.070Z,99.90
2023-09-22T01:16:21.528Z,99.90
2023-09-22T01:18:50.219Z,99.90
2023-09-22T01:21:20.201Z,99.90
2023-09-22T01:23:50.822Z,99.90
2023-09-22T01:26:19.504Z,99.90
2023-09-22T01:28:48.110Z,99.90
2023-09-22T01:31:16.951Z,99.90
2023-09-22T01:33:47.317Z,99.90
2023-09-22T01:36:16.009Z,99.90
2023-09-22T01:38:45.106Z,99.90
2023-09-22T01:41:15.141Z,99.90
2023-09-22T01:43:43.914Z,99.90
2023-09-22T01:46:12.465Z,99.90
2023-09-22T01:48:41.099Z,99.90
2023-09-22T01:51:09.526Z,99.90
2023-09-22T01:53:38.114Z,99.90
2023-09-22T01:56:07.870Z,99.90
2023-09-22T01:58:37.961Z,99.90
2023-09-22T02:01:06.615Z,99.90
2023-09-22T02:03:35.829Z,99.90
2023-09-22T02:06:05.557Z,99.90
2023-09-22T02:08:34.372Z,99.90
2023-09-22T02:11:02.703Z,99.90
2023-09-22T02:13:31.329Z,99.90
2023-09-22T02:16:02.040Z,99.90
2023-09-22T02:18:31.115Z,99.90
2023-09-22T02:20:59.330Z,99.90
2023-09-22T02:23:29.120Z,99.90
2023-09-22T02:25:57.416Z,99.90
2023-09-22T02:28:25.982Z,99.90
2023-09-22T02:30:54.333Z,99.90
2023-09-22T02:33:24.415Z,99.90
2023-09-22T02:35:52.857Z,99.90
2023-09-22T02:38:21.854Z,99.90
2023-09-22T02:40:50.213Z,99.90
2023-09-22T02:43:18.915Z,99.90
2023-09-22T02:45:47.540Z,99.90
2023-09-22T02:48:16.661Z,99.90
2023-09-22T02:50:47.866Z,99.90
2023-09-22T02:53:16.523Z,99.90
2023-09-22T02:55:44.883Z,99.90
2023-09-22T02:58:14.134Z,99.90
2023-09-22T03:00:45.497Z,99.90
2023-09-22T03:03:14.977Z,99.90
2023-09-22T03:05:43.801Z,99.90
2023-09-22T03:08:14.324Z,99.90
2023-09-22T03:10:42.705Z,99.90
2023-09-22T03:13:11.887Z,99.90
2023-09-22T03:15:40.355Z,99.90
2023-09-22T03:18:09.840Z,99.90
2023-09-22T03:20:38.166Z,99.90
2023-09-22T03:23:06.918Z,99.90
2023-09-22T03:25:36.946Z,99.90
2023-09-22T03:28:06.293Z,99.90
2023-09-22T03:30:34.920Z,99.90
2023-09-22T03:33:03.657Z,99.90
2023-09-22T03:35:32.577Z,99.90
2023-09-22T03:38:01.058Z,99.90
2023-09-22T03:40:34.049Z,99.90
2023-09-22T03:43:04.982Z,99.90
2023-09-22T03:45:34.087Z,99.90
2023-09-22T03:48:02.658Z,99.90
2023-09-22T03:50:31.283Z,99.90
2023-09-22T03:53:00.150Z,99.90
2023-09-22T03:55:28.449Z,99.90
2023-09-22T03:57:57.103Z,99.90
2023-09-22T04:00:29.786Z,99.90
2023-09-22T04:02:59.273Z,99.90
2023-09-22T04:05:28.445Z,99.90
2023-09-22T04:07:58.252Z,99.90
2023-09-22T04:10:26.763Z,99.90
2023-09-22T04:12:55.565Z,99.90
2023-09-22T04:15:24.580Z,99.90
2023-09-22T04:17:54.722Z,99.90
2023-09-22T04:20:30.286Z,99.90
2023-09-22T04:22:59.874Z,99.90
2023-09-22T04:25:35.753Z,99.90
2023-09-22T04:28:11.131Z,99.90
2023-09-22T04:30:40.836Z,99.90
2023-09-22T04:33:11.856Z,99.90
2023-09-22T04:35:42.126Z,99.90
2023-09-22T04:38:12.102Z,99.90
2023-09-22T04:40:40.987Z,99.90
2023-09-22T04:43:09.929Z,99.90
2023-09-22T04:45:39.239Z,99.90
2023-09-22T04:48:08.669Z,99.90
2023-09-22T04:50:39.441Z,99.90
2023-09-22T04:53:09.052Z,99.90
2023-09-22T04:55:38.507Z,99.90
2023-09-22T04:58:09.126Z,99.90
2023-09-22T05:00:37.963Z,99.90
2023-09-22T05:03:08.418Z,99.90
2023-09-22T05:05:38.940Z,99.90
2023-09-22T05:08:08.869Z,99.90
2023-09-22T05:10:37.244Z,99.90
2023-09-22T05:13:06.342Z,99.90
2023-09-22T05:15:34.914Z,99.90
2023-09-22T05:18:06.062Z,99.90
2023-09-22T05:20:34.369Z,99.90
2023-09-22T05:23:05.047Z,99.90
2023-09-22T05:25:33.665Z,99.90
2023-09-22T05:28:02.660Z,99.90
2023-09-22T05:30:32.648Z,99.90
2023-09-22T05:33:01.450Z,99.90
2023-09-22T05:35:29.763Z,99.90
2023-09-22T05:37:58.995Z,99.90
2023-09-22T05:40:28.752Z,99.90
2023-09-22T05:42:57.408Z,99.90
2023-09-22T05:45:25.783Z,99.90
2023-09-22T05:47:54.786Z,99.90
2023-09-22T05:50:24.326Z,99.90
2023-09-22T05:52:53.110Z,99.90
2023-09-22T05:55:21.599Z,99.90
2023-09-22T05:57:52.508Z,99.90
2023-09-22T06:00:20.882Z,99.90
2023-09-22T06:02:51.621Z,99.90
2023-09-22T06:05:20.040Z,99.90
2023-09-22T06:07:48.701Z,99.90
2023-09-22T06:10:17.499Z,99.90
2023-09-22T06:12:48.845Z,99.90
2023-09-22T06:15:18.556Z,99.90
2023-09-22T06:17:49.773Z,99.90
2023-09-22T06:20:18.427Z,99.90
2023-09-22T06:22:50.710Z,99.90
2023-09-22T06:25:20.069Z,99.90
2023-09-22T06:27:53.340Z,99.50
2023-09-22T06:30:24.376Z,99.00
2023-09-22T06:32:53.143Z,98.40
2023-09-22T06:35:21.523Z,98.00
2023-09-22T06:37:50.552Z,97.60
2023-09-22T06:40:19.178Z,97.30
2023-09-22T06:42:47.787Z,96.90
2023-09-22T06:45:17.546Z,96.60
2023-09-22T06:47:48.110Z,96.20
2023-09-22T06:50:16.697Z,96.00
2023-09-22T06:52:45.525Z,95.70
2023-09-22T06:55:16.338Z,95.50
2023-09-22T06:57:45.389Z,95.30
2023-09-22T07:00:20.409Z,95.00
2023-09-22T07:02:51.319Z,94.80
2023-09-22T07:05:21.673Z,94.40
2023-09-22T07:07:53.711Z,94.10
2023-09-22T07:10:24.857Z,93.80
2023-09-22T07:12:53.789Z,93.30
2023-09-22T07:15:24.324Z,92.90
2023-09-22T07:17:54.445Z,92.50
2023-09-22T07:20:23.237Z,92.00
2023-09-22T07:22:51.853Z,91.60
2023-09-22T07:25:23.329Z,91.10
2023-09-22T07:27:55.160Z,90.80
2023-09-22T07:30:23.564Z,90.50
2023-09-22T07:32:52.448Z,90.40
2023-09-22T07:35:22.403Z,90.40
2023-09-22T07:37:50.920Z,90.50
2023-09-22T07:40:19.310Z,90.80
2023-09-22T07:42:48.218Z,91.20
2023-09-22T07:45:16.918Z,91.70
2023-09-22T07:47:45.442Z,92.20
2023-09-22T07:50:14.033Z,92.60
2023-09-22T07:52:44.798Z,92.60
2023-09-22T07:55:15.724Z,92.60
2023-09-22T07:57:48.480Z,92.50
2023-09-22T08:00:19.767Z,92.50
2023-09-22T08:02:48.694Z,92.70
2023-09-22T08:05:17.321Z,92.80
2023-09-22T08:07:47.710Z,92.80
2023-09-22T08:10:16.312Z,92.90
2023-09-22T08:12:45.539Z,93.00
2023-09-22T08:15:15.929Z,93.30
2023-09-22T08:17:48.252Z,92.80
2023-09-22T08:20:16.749Z,92.60
2023-09-22T08:22:47.387Z,92.30
2023-09-22T08:25:17.542Z,92.00
2023-09-22T08:27:49.270Z,91.70
2023-09-22T08:30:18.086Z,91.30
2023-09-22T08:32:47.332Z,90.90
2023-09-22T08:35:17.289Z,90.60
2023-09-22T08:37:46.505Z,90.50
2023-09-22T08:40:18.969Z,90.30
2023-09-22T08:42:52.552Z,90.10
2023-09-22T08:45:21.672Z,90.00
2023-09-22T08:47:53.350Z,89.70
2023-09-22T08:50:22.372Z,89.50
2023-09-22T08:52:52.465Z,89.30
2023-09-22T08:55:24.945Z,88.90
2023-09-22T08:57:55.002Z,88.70
2023-09-22T09:00:27.809Z,88.40
2023-09-22T09:03:01.407Z,87.70
2023-09-22T09:05:32.152Z,87.70
2023-09-22T09:08:13.434Z,87.50
2023-09-22T09:10:45.917Z,87.40
2023-09-22T09:13:16.829Z,87.50
2023-09-22T09:15:46.717Z,87.00
2023-09-22T09:18:17.934Z,87.30
2023-09-22T09:20:48.695Z,87.40
2023-09-22T09:23:19.436Z,87.40
2023-09-22T09:25:51.360Z,87.50
2023-09-22T09:28:20.925Z,87.00
2023-09-22T09:30:52.603Z,87.30
2023-09-22T09:33:22.954Z,87.40
2023-09-22T09:35:52.327Z,87.20
2023-09-22T09:38:22.689Z,87.30
2023-09-22T09:40:53.634Z,87.10
2023-09-22T09:43:23.043Z,87.00
2023-09-22T09:45:53.764Z,87.10
2023-09-22T09:48:22.713Z,87.00
2023-09-22T09:50:55.782Z,87.20
2023-09-22T09:53:43.615Z,87.00
2023-09-22T09:56:16.492Z,87.20
2023-09-22T09:58:46.914Z,87.40
2023-09-22T10:01:17.887Z,87.40
2023-09-22T10:03:48.646Z,87.80
2023-09-22T10:06:18.947Z,87.30
2023-09-22T10:08:47.721Z,87.40
2023-09-22T10:11:17.624Z,87.40
2023-09-22T10:13:46.383Z,87.30
2023-09-22T10:16:29.622Z,87.40
2023-09-22T10:19:00.656Z,87.50
2023-09-22T10:21:52.965Z,87.70
2023-09-22T10:24:24.448Z,88.00
2023-09-22T10:27:15.215Z,89.30
2023-09-22T10:29:47.108Z,88.70
2023-09-22T10:32:28.053Z,89.20
2023-09-22T10:34:59.702Z,90.00
2023-09-22T10:37:29.398Z,89.20
2023-09-22T10:39:59.956Z,89.20
2023-09-22T10:42:29.797Z,89.10
2023-09-22T10:45:00.512Z,89.10
2023-09-22T10:47:41.437Z,89.20
2023-09-22T10:50:18.659Z,89.40
2023-09-22T10:52:55.478Z,89.30
2023-09-22T10:55:33.137Z,89.50
2023-09-22T10:58:05.549Z,89.30
2023-09-22T11:00:36.946Z,89.10
2023-09-22T11:03:07.298Z,89.40
2023-09-22T11:05:36.459Z,89.60
2023-09-22T11:08:14.422Z,89.70
2023-09-22T11:10:44.632Z,90.00
2023-09-22T11:13:16.030Z,90.00
2023-09-22T11:15:49.814Z,90.10
2023-09-22T11:18:25.489Z,90.70
2023-09-22T11:20:58.618Z,90.50
2023-09-22T11:23:28.112Z,90.70
2023-09-22T11:26:00.934Z,90.80
2023-09-22T11:28:33.141Z,91.00
2023-09-22T11:31:10.075Z,91.20
2023-09-22T11:33:38.948Z,91.50
2023-09-22T11:36:08.373Z,91.10
2023-09-22T11:38:41.108Z,91.10
2023-09-22T11:41:12.128Z,91.20
2023-09-22T11:43:43.513Z,91.20
2023-09-22T11:46:15.150Z,91.20
2023-09-22T11:49:00.605Z,91.20
2023-09-22T11:51:48.254Z,91.10
2023-09-22T11:54:19.099Z,91.00
2023-09-22T11:56:48.845Z,90.80
2023-09-22T11:59:20.653Z,90.70
2023-09-22T12:01:50.591Z,90.60
2023-09-22T12:04:20.511Z,90.50
2023-09-22T12:06:50.256Z,90.40
2023-09-22T12:09:19.052Z,90.40
2023-09-22T12:11:49.436Z,90.30
2023-09-22T12:14:19.629Z,90.40
2023-09-22T12:16:49.175Z,90.20
2023-09-22T12:19:18.217Z,90.10
2023-09-22T12:21:47.771Z,90.20
2023-09-22T12:24:16.341Z,90.20
2023-09-22T12:26:44.960Z,90.30
2023-09-22T12:29:15.201Z,90.60
2023-09-22T12:31:49.472Z,90.70
2023-09-22T12:34:18.826Z,91.20
2023-09-22T12:36:49.119Z,90.90
2023-09-22T12:39:19.409Z,91.00
2023-09-22T12:41:48.208Z,91.20
2023-09-22T12:44:16.584Z,91.30
2023-09-22T12:46:46.473Z,91.30
2023-09-22T12:49:14.908Z,91.10
2023-09-22T12:51:43.716Z,91.10
2023-09-22T12:54:12.028Z,91.20
2023-09-22T12:56:40.620Z,91.40
2023-09-22T12:59:10.151Z,91.50
2023-09-22T13:01:42.265Z,91.70
2023-09-22T13:04:12.336Z,91.90
2023-09-22T13:06:43.619Z,92.10
2023-09-22T13:09:12.159Z,92.20
2023-09-22T13:11:40.885Z,92.40
2023-09-22T13:14:09.935Z,92.50
2023-09-22T13:16:39.417Z,92.60
2023-09-22T13:19:08.115Z,92.70
2023-09-22T13:21:38.278Z,92.80
2023-09-22T13:24:07.658Z,92.90
2023-09-22T13:26:36.432Z,93.10
2023-09-22T13:29:05.666Z,93.10
2023-09-22T13:31:34.270Z,93.20
2023-09-22T13:34:03.499Z,93.30
2023-09-22T13:36:33.376Z,93.50
2023-09-22T13:39:04.803Z,93.50
2023-09-22T13:41:33.535Z,93.70
2023-09-22T13:44:01.863Z,93.80
2023-09-22T13:46:31.011Z,94.00
2023-09-22T13:48:59.361Z,94.20
2023-09-22T13:51:32.803Z,94.40
2023-09-22T13:54:02.536Z,94.50
2023-09-22T13:56:31.097Z,94.60
2023-09-22T13:58:59.526Z,94.70
2023-09-22T14:01:28.304Z,94.90
2023-09-22T14:03:58.547Z,95.00
2023-09-22T14:06:27.885Z,95.10
2023-09-22T14:08:59.288Z,95.30
2023-09-22T14:11:29.906Z,95.30
2023-09-22T14:13:58.385Z,95.50
2023-09-22T14:16:29.675Z,95.60
2023-09-22T14:18:58.241Z,95.70
2023-09-22T14:21:27.094Z,95.90
2023-09-22T14:23:55.460Z,96.00
2023-09-22T14:26:24.457Z,96.20
2023-09-22T14:28:54.256Z,97.10
2023-09-22T14:31:23.119Z,98.20
2023-09-22T14:33:52.874Z,99.30
2023-09-22T14:36:23.406Z,99.90
2023-09-22T14:38:51.672Z,99.90
2023-09-22T14:41:20.375Z,99.90
2023-09-22T14:43:48.795Z,99.90
2023-09-22T14:46:19.871Z,99.90
2023-09-22T14:48:48.909Z,99.90
2023-09-22T14:51:21.704Z,99.90
2023-09-22T14:53:51.002Z,99.90
2023-09-22T14:56:20.791Z,99.90
2023-09-22T14:58:49.525Z,99.90
2023-09-22T15:01:19.714Z,99.90
2023-09-22T15:03:48.916Z,99.90
2023-09-22T15:06:20.674Z,99.90
2023-09-22T15:08:49.162Z,99.90
2023-09-22T15:11:17.812Z,99.90
2023-09-22T15:13:46.231Z,99.90
2023-09-22T15:16:15.572Z,99.90
2023-09-22T15:18:45.348Z,99.90
2023-09-22T15:21:14.003Z,99.90
2023-09-22T15:23:44.513Z,99.90
2023-09-22T15:26:13.368Z,99.90
2023-09-22T15:28:42.170Z,99.90
2023-09-22T15:31:11.870Z,99.90
2023-09-22T15:33:40.302Z,99.90
2023-09-22T15:36:10.227Z,99.90
2023-09-22T15:38:39.436Z,99.90
2023-09-22T15:41:09.153Z,99.90
2023-09-22T15:43:38.089Z,99.90
2023-09-22T15:46:07.898Z,99.90
2023-09-22T15:48:36.505Z,99.90
2023-09-22T15:51:05.612Z,99.90
2023-09-22T15:53:38.128Z,99.90
2023-09-22T15:56:10.713Z,99.90
2023-09-22T15:58:39.495Z,99.90
2023-09-22T16:01:08.207Z,99.90
2023-09-22T16:03:37.230Z,99.90
2023-09-22T16:06:07.638Z,99.90
2023-09-22T16:08:38.445Z,99.90
2023-09-22T16:11:10.185Z,99.90
2023-09-22T16:13:40.168Z,99.90
2023-09-22T16:16:09.423Z,99.90
2023-09-22T16:18:37.927Z,99.90
2023-09-22T16:21:07.126Z,99.90
2023-09-22T16:23:37.236Z,99.90
2023-09-22T16:26:07.723Z,99.90
2023-09-22T16:28:36.948Z,99.90
2023-09-22T16:31:07.158Z,99.90
2023-09-22T16:33:37.128Z,99.90
2023-09-22T16:36:08.199Z,99.90
2023-09-22T16:38:38.591Z,99.90
2023-09-22T16:41:09.762Z,99.90
2023-09-22T16:43:41.619Z,99.90
2023-09-22T16:46:10.781Z,99.90
2023-09-22T16:48:41.791Z,99.90
2023-09-22T16:51:10.631Z,99.90
2023-09-22T16:53:40.308Z,99.90
2023-09-22T16:56:11.802Z,99.90
2023-09-22T16:58:44.012Z,99.90
2023-09-22T17:01:13.002Z,99.90
2023-09-22T17:03:41.664Z,99.90
2023-09-22T17:06:10.475Z,99.90
2023-09-22T17:08:40.106Z,99.90
2023-09-22T17:11:09.943Z,99.90
2023-09-22T17:13:38.631Z,99.90
2023-09-22T17:16:08.472Z,99.90
2023-09-22T17:18:37.027Z,99.90
2023-09-22T17:21:13.452Z,99.90
2023-09-22T17:23:43.693Z,99.90
2023-09-22T17:26:12.360Z,99.90
2023-09-22T17:28:41.623Z,99.90
2023-09-22T17:31:10.216Z,99.90
2023-09-22T17:33:38.663Z,99.90
2023-09-22T17:36:07.901Z,99.90
2023-09-22T17:38:36.224Z,99.90
2023-09-22T17:41:08.178Z,99.90
2023-09-22T17:43:36.991Z,99.90
2023-09-22T17:46:05.750Z,99.90
2023-09-22T17:48:36.974Z,99.90
2023-09-22T17:51:09.296Z,99.90
2023-09-22T17:53:37.942Z,99.90
2023-09-22T17:56:08.306Z,99.90
2023-09-22T17:58:36.778Z,99.90
2023-09-22T18:01:08.009Z,99.90
2023-09-22T18:03:36.449Z,99.90
2023-09-22T18:06:05.578Z,99.90
2023-09-22T18:08:34.194Z,99.90
2023-09-22T18:11:03.763Z,99.90
2023-09-22T18:13:33.777Z,99.90
2023-09-22T18:16:04.877Z,99.90
2023-09-22T18:18:34.304Z,99.90
2023-09-22T18:21:03.302Z,99.90
2023-09-22T18:23:32.409Z,99.90
2023-09-22T18:26:06.598Z,99.90
2023-09-22T18:28:37.752Z,99.90
2023-09-22T18:31:15.099Z,99.90
2023-09-22T18:33:44.494Z,99.90
2023-09-22T18:36:13.377Z,99.90
2023-09-22T18:38:41.920Z,99.90
2023-09-22T18:41:10.937Z,99.90
2023-09-22T18:43:40.872Z,99.90
2023-09-22T18:46:15.284Z,99.90
2023-09-22T18:48:44.697Z,99.90
2023-09-22T18:51:13.955Z,99.90
2023-09-22T18:53:43.074Z,99.90
2023-09-22T18:56:12.125Z,99.90
2023-09-22T18:58:42.090Z,99.90
2023-09-22T19:01:11.039Z,99.90
2023-09-22T19:03:39.580Z,99.90
2023-09-22T19:06:11.657Z,99.90
2023-09-22T19:08:41.013Z,99.90
2023-09-22T19:11:14.925Z,99.90
2023-09-22T19:13:44.837Z,99.90
2023-09-22T19:16:14.876Z,99.90
2023-09-22T19:18:44.883Z,99.90
2023-09-22T19:21:14.082Z,99.90
2023-09-22T19:23:44.240Z,99.90
2023-09-22T19:26:13.845Z,99.90
2023-09-22T19:28:44.545Z,99.90
2023-09-22T19:31:13.774Z,99.90
2023-09-22T19:33:42.555Z,99.90
2023-09-22T19:36:11.696Z,99.90
2023-09-22T19:38:40.162Z,99.90
2023-09-22T19:41:12.893Z,99.90
2023-09-22T19:43:41.385Z,99.90
2023-09-22T19:46:14.657Z,99.90
2023-09-22T19:48:43.144Z,99.90
2023-09-22T19:51:12.993Z,99.90
2023-09-22T19:53:42.462Z,99.90
2023-09-22T19:56:11.391Z,99.90
2023-09-22T19:58:40.183Z,99.90
2023-09-22T20:01:09.680Z,99.90
2023-09-22T20:03:40.213Z,99.90
2023-09-22T20:06:09.336Z,99.90
2023-09-22T20:08:37.848Z,99.90
2023-09-22T20:11:07.620Z,99.90
2023-09-22T20:13:36.341Z,99.90
2023-09-22T20:16:07.081Z,99.90
2023-09-22T20:18:35.752Z,99.90
2023-09-22T20:21:06.296Z,99.90
2023-09-22T20:23:35.182Z,99.90
2023-09-22T20:26:06.708Z,99.90
2023-09-22T20:28:35.986Z,99.90
2023-09-22T20:31:06.396Z,99.90
2023-09-22T20:33:35.377Z,99.90
2023-09-22T20:36:11.936Z,99.90
2023-09-22T20:38:43.306Z,99.90
2023-09-22T20:41:13.607Z,99.90
2023-09-22T20:43:43.526Z,99.90
2023-09-22T20:46:12.658Z,99.90
2023-09-22T20:48:41.461Z,99.90
2023-09-22T20:51:13.433Z,99.90
2023-09-22T20:53:45.320Z,99.90
2023-09-22T20:56:14.959Z,99.90
2023-09-22T20:58:45.291Z,99.90
2023-09-22T21:01:16.982Z,99.90
2023-09-22T21:03:46.175Z,99.90
2023-09-22T21:06:16.426Z,99.90
2023-09-22T21:08:46.103Z,99.90
2023-09-22T21:11:15.616Z,99.90
2023-09-22T21:13:43.946Z,99.90
2023-09-22T21:16:13.753Z,99.90
2023-09-22T21:18:42.748Z,99.90
2023-09-22T21:21:11.243Z,99.90
2023-09-22T21:23:40.860Z,99.90
2023-09-22T21:26:09.820Z,99.90
2023-09-22T21:28:38.987Z,99.90
2023-09-22T21:31:07.606Z,99.90
2023-09-22T21:33:36.049Z,99.90
2023-09-22T21:36:05.029Z,99.90
2023-09-22T21:38:33.469Z,99.90
2023-09-22T21:41:07.367Z,99.90
2023-09-22T21:43:35.949Z,99.90
2023-09-22T21:46:06.158Z,99.90
2023-09-22T21:48:35.183Z,99.90
2023-09-22T21:51:03.871Z,99.90
2023-09-22T21:53:32.407Z,99.90
2023-09-22T21:56:01.587Z,99.90
2023-09-22T21:58:31.286Z,99.90
2023-09-22T22:00:59.983Z,99.90
2023-09-22T22:03:29.203Z,99.90
2023-09-22T22:05:57.958Z,99.90
2023-09-22T22:08:28.143Z,99.90
2023-09-22T22:10:57.782Z,99.90
2023-09-22T22:13:28.585Z,99.90
2023-09-22T22:15:58.493Z,99.90
2023-09-22T22:18:27.352Z,99.90
2023-09-22T22:20:56.108Z,99.90
2023-09-22T22:23:24.436Z,99.90
2023-09-22T22:25:57.209Z,99.90
2023-09-22T22:28:26.509Z,99.90
2023-09-22T22:30:57.620Z,99.90
2023-09-22T22:33:27.496Z,99.90
2023-09-22T22:35:56.019Z,99.90
2023-09-22T22:38:24.404Z,99.90
2023-09-22T22:40:53.049Z,99.90
2023-09-22T22:43:21.803Z,99.90
2023-09-22T22:45:50.260Z,99.90
2023-09-22T22:48:18.643Z,99.90
2023-09-22T22:50:48.828Z,99.90
2023-09-22T22:53:18.056Z,99.90
2023-09-22T22:55:46.845Z,99.90
2023-09-22T22:58:20.723Z,99.90
2023-09-22T23:00:55.550Z,99.90
2023-09-22T23:03:25.863Z,99.90
2023-09-22T23:05:56.466Z,99.90
2023-09-22T23:08:24.833Z,99.90
2023-09-22T23:11:06.996Z,99.90
2023-09-22T23:13:37.848Z,99.90
2023-09-22T23:16:07.135Z,99.90
2023-09-22T23:18:37.101Z,99.90
2023-09-22T23:21:07.145Z,99.90
2023-09-22T23:23:35.376Z,99.90
2023-09-22T23:26:08.065Z,99.90
2023-09-22T23:28:43.316Z,99.90
2023-09-22T23:31:12.232Z,99.90
2023-09-22T23:33:41.000Z,99.90
2023-09-22T23:36:11.009Z,99.90
2023-09-22T23:38:39.274Z,99.90
2023-09-22T23:41:11.836Z,99.90
2023-09-22T23:43:40.451Z,99.90
2023-09-22T23:46:09.642Z,99.90
2023-09-22T23:48:39.228Z,99.90
2023-09-22T23:51:09.009Z,99.90
2023-09-22T23:53:40.389Z,99.90
2023-09-22T23:56:10.769Z,99.90
2023-09-22T23:58:43.179Z,99.90
